createdAt,value
2019-04-04T00:01:03.262Z,7.90
2019-04-04T00:03:33.808Z,7.90
2019-04-04T00:06:04.204Z,7.90
2019-04-04T00:08:34.626Z,7.90
2019-04-04T00:11:06.089Z,7.80
2019-04-04T00:13:37.065Z,7.80
2019-04-04T00:16:07.506Z,7.80
2019-04-04T00:18:37.930Z,7.80
2019-04-04T00:21:08.370Z,7.80
2019-04-04T00:23:38.805Z,7.80
2019-04-04T00:26:10.918Z,7.80
2019-04-04T00:28:41.349Z,7.80
2019-04-04T00:31:11.791Z,7.70
2019-04-04T00:33:42.211Z,7.70
2019-04-04T00:36:12.623Z,7.70
2019-04-04T00:38:43.052Z,7.70
2019-04-04T00:41:13.628Z,7.70
2019-04-04T00:43:44.077Z,7.70
2019-04-04T00:46:14.480Z,7.70
2019-04-04T00:48:44.896Z,7.70
2019-04-04T00:51:15.313Z,7.70
2019-04-04T00:53:45.747Z,7.70
2019-04-04T00:56:18.085Z,7.70
2019-04-04T00:58:51.760Z,7.70
2019-04-04T01:01:20.424Z,7.70
2019-04-04T01:03:50.855Z,7.60
2019-04-04T01:06:21.256Z,7.70
2019-04-04T01:08:51.692Z,7.70
2019-04-04T01:11:22.189Z,7.60
2019-04-04T01:13:52.580Z,7.60
2019-04-04T01:16:23.015Z,7.60
2019-04-04T01:18:53.395Z,7.60
2019-04-04T01:21:23.858Z,7.60
2019-04-04T01:23:54.247Z,7.60
2019-04-04T01:26:24.682Z,7.60
2019-04-04T01:28:55.104Z,7.60
2019-04-04T01:31:25.519Z,7.50
2019-04-04T01:33:55.955Z,7.50
2019-04-04T01:36:26.381Z,7.50
2019-04-04T01:38:58.132Z,7.50
2019-04-04T01:41:29.046Z,7.50
2019-04-04T01:44:04.947Z,7.50
2019-04-04T01:46:31.856Z,7.50
2019-04-04T01:49:02.348Z,7.50
2019-04-04T01:51:32.830Z,7.50
2019-04-04T01:54:03.350Z,7.50
2019-04-04T01:56:36.728Z,7.50
2019-04-04T01:59:05.984Z,7.50
2019-04-04T02:01:36.406Z,7.40
2019-04-04T02:04:06.979Z,7.40
2019-04-04T02:06:37.417Z,7.40
2019-04-04T02:09:08.818Z,7.40
2019-04-04T02:11:39.313Z,7.40
2019-04-04T02:14:09.916Z,7.40
2019-04-04T02:16:41.888Z,7.40
2019-04-04T02:19:12.310Z,7.30
2019-04-04T02:21:42.756Z,7.40
2019-04-04T02:24:13.181Z,7.40
2019-04-04T02:26:43.720Z,7.40
2019-04-04T02:29:14.124Z,7.30
2019-04-04T02:31:48.016Z,7.30
2019-04-04T02:34:18.400Z,7.30
2019-04-04T02:36:49.863Z,7.30
2019-04-04T02:39:22.117Z,7.30
2019-04-04T02:41:52.560Z,7.30
2019-04-04T02:44:22.950Z,7.20
2019-04-04T02:46:53.401Z,7.20
2019-04-04T02:49:28.085Z,7.20
2019-04-04T02:51:55.978Z,7.20
2019-04-04T02:54:26.369Z,7.10
2019-04-04T02:56:56.818Z,7.10
2019-04-04T02:59:27.238Z,7.10
2019-04-04T03:01:57.740Z,7.10
2019-04-04T03:04:28.181Z,7.10
2019-04-04T03:06:58.855Z,7.00
2019-04-04T03:09:29.233Z,7.00
2019-04-04T03:11:59.728Z,7.00
2019-04-04T03:14:30.143Z,7.00
2019-04-04T03:17:00.694Z,7.00
2019-04-04T03:19:31.123Z,6.90
2019-04-04T03:22:01.586Z,6.90
2019-04-04T03:24:32.034Z,6.90
2019-04-04T03:27:02.584Z,6.90
2019-04-04T03:29:37.333Z,6.80
2019-04-04T03:32:05.221Z,6.80
2019-04-04T03:34:35.651Z,6.80
2019-04-04T03:37:07.263Z,6.70
2019-04-04T03:39:38.192Z,6.70
2019-04-04T03:42:08.678Z,6.70
2019-04-04T03:44:39.089Z,6.60
2019-04-04T03:47:10.394Z,6.60
2019-04-04T03:49:41.823Z,6.50
2019-04-04T03:52:12.281Z,6.50
2019-04-04T03:54:42.694Z,6.50
2019-04-04T03:57:13.154Z,6.50
2019-04-04T03:59:43.593Z,6.50
2019-04-04T04:02:17.934Z,6.50
2019-04-04T04:04:46.249Z,6.50
2019-04-04T04:07:16.723Z,6.50
2019-04-04T04:09:47.301Z,6.50
2019-04-04T04:12:17.746Z,6.40
2019-04-04T04:14:48.269Z,6.40
2019-04-04T04:17:18.813Z,6.40
2019-04-04T04:19:49.389Z,6.50
2019-04-04T04:22:19.968Z,6.40
2019-04-04T04:24:50.638Z,6.50
2019-04-04T04:27:21.084Z,6.40
2019-04-04T04:29:51.872Z,6.40
2019-04-04T04:32:22.814Z,6.40
2019-04-04T04:34:53.370Z,6.40
2019-04-04T04:37:23.899Z,6.40
2019-04-04T04:39:54.327Z,6.40
2019-04-04T04:42:26.646Z,6.30
2019-04-04T04:44:56.951Z,6.40
2019-04-04T04:47:27.371Z,6.30
2019-04-04T04:49:57.852Z,6.30
2019-04-04T04:52:28.291Z,6.30
2019-04-04T04:54:58.728Z,6.30
2019-04-04T04:57:30.358Z,6.20
2019-04-04T05:00:00.943Z,6.20
2019-04-04T05:02:31.498Z,6.20
2019-04-04T05:05:01.896Z,6.20
2019-04-04T05:07:32.444Z,6.20
2019-04-04T05:10:02.855Z,6.20
2019-04-04T05:12:33.393Z,6.10
2019-04-04T05:15:04.046Z,6.10
2019-04-04T05:17:34.460Z,6.10
2019-04-04T05:20:05.993Z,6.10
2019-04-04T05:22:39.715Z,6.00
2019-04-04T05:25:09.146Z,6.00
2019-04-04T05:27:39.648Z,6.00
2019-04-04T05:30:10.043Z,6.00
2019-04-04T05:32:40.623Z,5.90
2019-04-04T05:35:11.167Z,5.90
2019-04-04T05:37:41.541Z,5.90
2019-04-04T05:40:12.488Z,5.90
2019-04-04T05:42:42.895Z,5.90
2019-04-04T05:45:14.359Z,5.90
2019-04-04T05:47:45.444Z,5.90
2019-04-04T05:50:16.546Z,5.90
2019-04-04T05:52:46.955Z,5.90
2019-04-04T05:55:17.384Z,6.00
2019-04-04T05:57:48.946Z,6.00
2019-04-04T06:00:20.048Z,6.00
2019-04-04T06:02:50.412Z,6.00
2019-04-04T06:05:20.980Z,6.00
2019-04-04T06:07:51.343Z,6.00
2019-04-04T06:10:21.793Z,6.00
2019-04-04T06:12:52.197Z,6.00
2019-04-04T06:15:23.436Z,6.00
2019-04-04T06:17:53.872Z,6.00
2019-04-04T06:20:24.299Z,6.00
2019-04-04T06:22:54.757Z,6.00
2019-04-04T06:25:25.181Z,6.00
2019-04-04T06:27:55.602Z,6.00
2019-04-04T06:30:26.136Z,6.00
2019-04-04T06:32:56.619Z,6.00
2019-04-04T06:35:27.042Z,6.00
2019-04-04T06:37:57.471Z,6.10
2019-04-04T06:40:28.123Z,6.10
2019-04-04T06:43:00.133Z,6.10
2019-04-04T06:45:32.372Z,6.10
2019-04-04T06:48:02.823Z,6.10
2019-04-04T06:50:33.341Z,6.10
2019-04-04T06:53:03.805Z,6.20
2019-04-04T06:55:39.760Z,6.10
2019-04-04T06:58:09.298Z,6.20
2019-04-04T07:00:38.558Z,6.20
2019-04-04T07:03:08.989Z,6.20
2019-04-04T07:05:39.391Z,6.20
2019-04-04T07:08:09.788Z,6.20
2019-04-04T07:10:40.220Z,6.20
2019-04-04T07:13:21.431Z,6.30
2019-04-04T07:15:46.890Z,6.30
2019-04-04T07:18:14.911Z,6.30
2019-04-04T07:20:48.030Z,6.30
2019-04-04T07:23:17.486Z,6.40
2019-04-04T07:25:47.944Z,6.40
2019-04-04T07:28:19.072Z,6.40
2019-04-04T07:30:50.045Z,6.40
2019-04-04T07:33:21.501Z,6.40
2019-04-04T07:35:51.990Z,6.50
2019-04-04T07:38:22.495Z,6.50
2019-04-04T07:40:52.954Z,6.50
2019-04-04T07:43:23.354Z,6.50
2019-04-04T07:45:55.245Z,6.50
2019-04-04T07:48:28.365Z,6.50
2019-04-04T07:50:58.552Z,6.60
2019-04-04T07:53:29.598Z,6.60
2019-04-04T07:56:00.103Z,6.60
2019-04-04T07:58:30.610Z,6.60
2019-04-04T08:01:01.052Z,6.60
2019-04-04T08:03:31.592Z,6.70
2019-04-04T08:06:02.006Z,6.70
2019-04-04T08:08:32.578Z,6.70
2019-04-04T08:11:02.982Z,6.70
2019-04-04T08:13:33.537Z,6.70
2019-04-04T08:16:04.144Z,6.70
2019-04-04T08:18:34.630Z,6.70
2019-04-04T08:21:05.849Z,6.70
2019-04-04T08:23:36.332Z,6.70
2019-04-04T08:26:09.848Z,6.70
2019-04-04T08:28:38.928Z,6.70
2019-04-04T08:31:09.903Z,6.70
2019-04-04T08:33:40.446Z,6.70
2019-04-04T08:36:10.843Z,6.80
2019-04-04T08:38:41.295Z,6.80
2019-04-04T08:41:11.696Z,6.80
2019-04-04T08:43:42.090Z,6.80
2019-04-04T08:46:12.540Z,6.80
2019-04-04T08:48:42.939Z,6.90
2019-04-04T08:51:13.354Z,6.90
2019-04-04T08:53:43.788Z,6.90
2019-04-04T08:56:14.199Z,6.90
2019-04-04T08:58:44.644Z,6.90
2019-04-04T09:01:15.075Z,6.90
2019-04-04T09:03:45.591Z,7.00
2019-04-04T09:06:16.039Z,7.00
2019-04-04T09:08:46.449Z,7.00
2019-04-04T09:11:16.877Z,7.00
2019-04-04T09:13:47.304Z,7.00
2019-04-04T09:16:17.748Z,7.00
2019-04-04T09:18:48.169Z,7.00
2019-04-04T09:21:18.631Z,7.00
2019-04-04T09:23:49.050Z,7.10
2019-04-04T09:26:19.460Z,7.10
2019-04-04T09:28:49.876Z,7.10
2019-04-04T09:31:20.274Z,7.10
2019-04-04T09:33:50.706Z,7.20
2019-04-04T09:36:21.157Z,7.20
2019-04-04T09:38:51.552Z,7.20
2019-04-04T09:41:21.981Z,7.20
2019-04-04T09:43:52.487Z,7.20
2019-04-04T09:46:22.934Z,7.20
2019-04-04T09:48:53.353Z,7.30
2019-04-04T09:51:23.809Z,7.30
2019-04-04T09:53:54.242Z,7.30
2019-04-04T09:56:24.645Z,7.30
2019-04-04T09:58:55.229Z,7.30
2019-04-04T10:01:25.661Z,7.30
2019-04-04T10:03:56.096Z,7.30
2019-04-04T10:06:26.534Z,7.40
2019-04-04T10:08:57.000Z,7.40
2019-04-04T10:11:27.391Z,7.40
2019-04-04T10:13:57.823Z,7.40
2019-04-04T10:16:28.268Z,7.40
2019-04-04T10:18:58.706Z,7.50
2019-04-04T10:21:29.163Z,7.40
2019-04-04T10:23:59.619Z,7.40
2019-04-04T10:26:30.101Z,7.50
2019-04-04T10:29:00.672Z,7.50
2019-04-04T10:31:31.081Z,7.50
2019-04-04T10:34:01.603Z,7.50
2019-04-04T10:36:32.056Z,7.50
2019-04-04T10:39:04.201Z,7.50
2019-04-04T10:41:34.724Z,7.50
2019-04-04T10:44:05.129Z,7.50
2019-04-04T10:46:35.565Z,7.50
2019-04-04T10:49:08.309Z,7.60
2019-04-04T10:51:38.207Z,7.60
2019-04-04T10:54:08.596Z,7.60
2019-04-04T10:56:39.062Z,7.60
2019-04-04T10:59:09.468Z,7.60
2019-04-04T11:01:39.919Z,7.60
2019-04-04T11:04:10.316Z,7.60
2019-04-04T11:06:40.750Z,7.60
2019-04-04T11:09:11.167Z,7.70
2019-04-04T11:11:41.630Z,7.70
2019-04-04T11:14:12.055Z,7.70
2019-04-04T11:16:42.458Z,7.70
2019-04-04T11:19:12.871Z,7.70
2019-04-04T11:21:43.268Z,7.70
2019-04-04T11:24:13.695Z,7.70
2019-04-04T11:26:44.169Z,7.70
2019-04-04T11:29:14.576Z,7.70
2019-04-04T11:31:45.055Z,7.70
2019-04-04T11:34:15.482Z,7.70
2019-04-04T11:36:45.947Z,7.70
2019-04-04T11:39:16.364Z,7.70
2019-04-04T11:41:46.825Z,7.70
2019-04-04T11:44:17.413Z,7.70
2019-04-04T11:46:47.828Z,7.70
2019-04-04T11:49:18.327Z,7.80
2019-04-04T11:51:48.754Z,7.80
2019-04-04T11:54:19.228Z,7.80
2019-04-04T11:56:49.657Z,7.80
2019-04-04T11:59:20.144Z,7.80
2019-04-04T12:01:50.980Z,7.70
2019-04-04T12:04:21.405Z,7.70
2019-04-04T12:06:51.859Z,7.70
2019-04-04T12:09:22.249Z,7.70
2019-04-04T12:11:52.662Z,7.70
2019-04-04T12:14:23.162Z,7.70
2019-04-04T12:16:53.589Z,7.70
2019-04-04T12:19:24.013Z,7.70
2019-04-04T12:21:54.444Z,7.70
2019-04-04T12:24:24.885Z,7.70
2019-04-04T12:26:55.335Z,7.70
2019-04-04T12:29:25.759Z,7.70
2019-04-04T12:31:56.159Z,7.70
2019-04-04T12:34:26.627Z,7.70
2019-04-04T12:36:58.813Z,7.80
2019-04-04T12:39:29.212Z,7.80
2019-04-04T12:41:59.812Z,7.80
2019-04-04T12:44:43.781Z,7.80
2019-04-04T12:47:14.206Z,7.80
2019-04-04T12:49:44.603Z,7.90
2019-04-04T12:52:15.070Z,7.90
2019-04-04T12:54:45.504Z,7.90
2019-04-04T12:57:15.913Z,7.90
2019-04-04T12:59:46.334Z,7.90
2019-04-04T13:02:17.401Z,7.90
2019-04-04T13:04:47.824Z,7.90
2019-04-04T13:07:18.328Z,7.90
2019-04-04T13:09:48.747Z,7.90
2019-04-04T13:12:19.264Z,7.90
2019-04-04T13:14:51.864Z,7.90
2019-04-04T13:17:22.317Z,7.90
2019-04-04T13:19:52.759Z,7.90
2019-04-04T13:22:25.133Z,7.90
2019-04-04T13:24:55.606Z,7.80
2019-04-04T13:27:26.101Z,7.80
2019-04-04T13:29:56.637Z,7.90
2019-04-04T13:32:27.331Z,7.80
2019-04-04T13:34:59.612Z,7.90
2019-04-04T13:37:29.911Z,7.90
2019-04-04T13:40:00.594Z,7.90
2019-04-04T13:42:31.037Z,7.90
2019-04-04T13:45:01.580Z,7.80
2019-04-04T13:47:32.026Z,7.90
2019-04-04T13:50:02.603Z,7.90
2019-04-04T13:52:33.039Z,7.90
2019-04-04T13:55:03.552Z,7.90
2019-04-04T13:57:34.000Z,7.90
2019-04-04T14:00:06.053Z,7.90
2019-04-04T14:02:36.483Z,7.90
2019-04-04T14:05:11.479Z,7.90
2019-04-04T14:07:43.631Z,7.90
2019-04-04T14:10:17.053Z,7.90
2019-04-04T14:12:45.895Z,7.90
2019-04-04T14:15:16.469Z,7.90
2019-04-04T14:17:46.911Z,8.00
2019-04-04T14:20:17.409Z,8.00
2019-04-04T14:22:51.078Z,8.00
2019-04-04T14:25:20.190Z,8.00
2019-04-04T14:27:50.581Z,8.00
2019-04-04T14:30:22.404Z,8.00
2019-04-04T14:33:21.099Z,8.10
2019-04-04T14:35:51.544Z,8.10
2019-04-04T14:38:23.972Z,8.10
2019-04-04T14:40:54.418Z,8.10
2019-04-04T14:43:25.909Z,8.10
2019-04-04T14:45:56.570Z,8.10
2019-04-04T14:48:27.028Z,8.10
2019-04-04T14:50:57.518Z,8.10
2019-04-04T14:53:27.977Z,8.10
2019-04-04T14:55:58.394Z,8.10
2019-04-04T14:58:30.670Z,8.10
2019-04-04T15:01:01.057Z,8.20
2019-04-04T15:03:31.624Z,8.20
2019-04-04T15:06:02.139Z,8.20
2019-04-04T15:08:32.641Z,8.20
2019-04-04T15:11:03.419Z,8.20
2019-04-04T15:13:33.843Z,8.20
2019-04-04T15:16:17.614Z,8.20
2019-04-04T15:18:48.472Z,8.20
2019-04-04T15:21:19.254Z,8.20
2019-04-04T15:24:00.997Z,8.20
2019-04-04T15:26:31.601Z,8.20
2019-04-04T15:29:02.010Z,8.20
2019-04-04T15:31:34.714Z,8.20
2019-04-04T15:34:05.279Z,8.20
2019-04-04T15:36:35.714Z,8.20
2019-04-04T15:39:07.529Z,8.20
2019-04-04T15:41:38.227Z,8.20
2019-04-04T15:44:08.633Z,8.20
2019-04-04T15:46:39.085Z,8.20
2019-04-04T15:49:09.539Z,8.20
2019-04-04T15:51:39.983Z,8.20
2019-04-04T15:54:10.453Z,8.20
2019-04-04T15:56:40.934Z,8.10
2019-04-04T15:59:11.400Z,8.20
2019-04-04T16:01:41.810Z,8.10
2019-04-04T16:04:12.328Z,8.10
2019-04-04T16:06:42.902Z,8.20
2019-04-04T16:09:13.386Z,8.20
2019-04-04T16:11:49.208Z,8.20
2019-04-04T16:14:15.926Z,8.20
2019-04-04T16:16:46.415Z,8.20
2019-04-04T16:19:17.202Z,8.10
2019-04-04T16:21:47.619Z,8.10
2019-04-04T16:24:18.355Z,8.10
2019-04-04T16:26:48.792Z,8.10
2019-04-04T16:29:20.200Z,8.10
2019-04-04T16:31:50.646Z,8.10
2019-04-04T16:34:21.088Z,8.10
2019-04-04T16:36:51.573Z,8.10
2019-04-04T16:39:21.988Z,8.10
2019-04-04T16:42:02.173Z,8.10
2019-04-04T16:44:24.695Z,8.10
2019-04-04T16:46:55.165Z,8.10
2019-04-04T16:49:25.629Z,8.10
2019-04-04T16:51:56.065Z,8.10
2019-04-04T16:54:26.578Z,8.10
2019-04-04T16:56:57.023Z,8.10
2019-04-04T16:59:27.471Z,8.10
2019-04-04T17:01:57.894Z,8.10
2019-04-04T17:04:28.316Z,8.10
2019-04-04T17:06:58.802Z,8.10
2019-04-04T17:09:29.254Z,8.10
2019-04-04T17:11:59.788Z,8.10
2019-04-04T17:14:33.120Z,8.10
2019-04-04T17:17:02.660Z,8.10
2019-04-04T17:19:33.090Z,8.10
2019-04-04T17:22:03.616Z,8.10
2019-04-04T17:24:34.050Z,8.10
2019-04-04T17:27:04.475Z,8.10
2019-04-04T17:29:34.908Z,8.10
2019-04-04T17:32:05.367Z,8.10
2019-04-04T17:34:35.797Z,8.10
2019-04-04T17:37:06.711Z,8.10
2019-04-04T17:39:37.611Z,8.10
2019-04-04T17:42:08.097Z,8.10
2019-04-04T17:44:38.671Z,8.10
2019-04-04T17:47:09.104Z,8.10
2019-04-04T17:49:39.787Z,8.10
2019-04-04T17:52:10.275Z,8.10
2019-04-04T17:54:40.946Z,8.10
2019-04-04T17:57:11.831Z,8.00
2019-04-04T17:59:42.310Z,8.00
2019-04-04T18:02:12.784Z,8.00
2019-04-04T18:04:48.485Z,8.00
2019-04-04T18:07:15.374Z,8.00
2019-04-04T18:09:48.524Z,8.00
2019-04-04T18:12:19.291Z,8.00
2019-04-04T18:14:49.727Z,8.00
2019-04-04T18:17:20.207Z,8.00
2019-04-04T18:19:50.721Z,8.00
2019-04-04T18:22:21.175Z,8.00
2019-04-04T18:24:51.568Z,8.00
2019-04-04T18:27:22.045Z,8.00
2019-04-04T18:29:52.521Z,8.00
2019-04-04T18:32:23.010Z,8.00
2019-04-04T18:34:53.468Z,8.00
2019-04-04T18:37:24.265Z,7.90
2019-04-04T18:39:54.742Z,7.90
2019-04-04T18:42:25.238Z,7.90
2019-04-04T18:44:56.001Z,7.90
2019-04-04T18:47:26.750Z,7.90
2019-04-04T18:49:57.231Z,7.80
2019-04-04T18:52:27.659Z,7.80
2019-04-04T18:54:59.161Z,7.80
2019-04-04T18:57:29.629Z,7.80
2019-04-04T19:00:00.218Z,7.80
2019-04-04T19:02:33.027Z,7.80
2019-04-04T19:05:03.606Z,7.80
2019-04-04T19:07:39.440Z,7.80
2019-04-04T19:10:07.339Z,7.80
2019-04-04T19:12:37.773Z,7.80
2019-04-04T19:15:09.560Z,7.80
2019-04-04T19:17:39.973Z,7.80
2019-04-04T19:20:11.219Z,7.80
2019-04-04T19:22:41.754Z,7.80
2019-04-04T19:25:13.886Z,7.80
2019-04-04T19:27:44.391Z,7.80
2019-04-04T19:30:17.721Z,7.80
2019-04-04T19:32:48.351Z,7.80
2019-04-04T19:35:18.999Z,7.80
2019-04-04T19:37:59.553Z,7.80
2019-04-04T19:40:21.593Z,7.80
2019-04-04T19:42:52.034Z,7.80
2019-04-04T19:45:22.444Z,7.80
2019-04-04T19:47:52.847Z,7.80
2019-04-04T19:50:23.314Z,7.80
2019-04-04T19:52:53.747Z,7.80
2019-04-04T19:55:24.182Z,7.80
2019-04-04T19:57:54.599Z,7.80
2019-04-04T20:00:25.381Z,7.80
2019-04-04T20:02:55.835Z,7.80
2019-04-04T20:05:26.229Z,7.80
2019-04-04T20:07:56.637Z,7.80
2019-04-04T20:10:27.116Z,7.80
2019-04-04T20:12:57.594Z,7.80
2019-04-04T20:15:28.054Z,7.80
2019-04-04T20:17:58.546Z,7.80
2019-04-04T20:20:29.346Z,7.80
2019-04-04T20:22:59.803Z,7.70
2019-04-04T20:25:30.271Z,7.70
2019-04-04T20:28:00.821Z,7.70
2019-04-04T20:30:41.085Z,7.70
2019-04-04T20:33:11.483Z,7.70
2019-04-04T20:35:41.935Z,7.70
2019-04-04T20:38:12.338Z,7.70
2019-04-04T20:40:42.775Z,7.70
2019-04-04T20:43:13.230Z,7.60
2019-04-04T20:45:43.628Z,7.60
2019-04-04T20:48:14.248Z,7.60
2019-04-04T20:50:44.694Z,7.60
2019-04-04T20:53:15.090Z,7.60
2019-04-04T20:55:45.537Z,7.60
2019-04-04T20:58:15.999Z,7.60
2019-04-04T21:00:46.432Z,7.60
2019-04-04T21:03:16.866Z,7.60
2019-04-04T21:05:47.289Z,7.60
2019-04-04T21:08:17.708Z,7.60
2019-04-04T21:10:48.111Z,7.60
2019-04-04T21:13:18.536Z,7.60
2019-04-04T21:15:48.978Z,7.60
2019-04-04T21:18:19.423Z,7.60
2019-04-04T21:20:49.824Z,7.60
2019-04-04T21:23:20.212Z,7.60
2019-04-04T21:25:50.644Z,7.60
2019-04-04T21:28:21.090Z,7.60
2019-04-04T21:30:51.518Z,7.60
2019-04-04T21:33:22.004Z,7.60
2019-04-04T21:35:52.425Z,7.60
2019-04-04T21:38:22.816Z,7.60
2019-04-04T21:40:53.306Z,7.60
2019-04-04T21:43:23.734Z,7.60
2019-04-04T21:45:54.177Z,7.60
2019-04-04T21:48:24.587Z,7.60
2019-04-04T21:50:55.032Z,7.60
2019-04-04T21:53:25.504Z,7.50
2019-04-04T21:55:55.889Z,7.50
2019-04-04T21:58:26.373Z,7.60
2019-04-04T22:00:57.910Z,7.60
2019-04-04T22:03:28.296Z,7.60
2019-04-04T22:05:58.707Z,7.50
2019-04-04T22:08:29.155Z,7.50
2019-04-04T22:10:59.603Z,7.50
2019-04-04T22:13:29.999Z,7.50
2019-04-04T22:16:00.751Z,7.50
2019-04-04T22:18:31.161Z,7.50
2019-04-04T22:21:01.651Z,7.50
2019-04-04T22:23:32.128Z,7.50
2019-04-04T22:26:02.599Z,7.50
2019-04-04T22:28:33.011Z,7.50
2019-04-04T22:31:03.579Z,7.50
2019-04-04T22:33:34.048Z,7.50
2019-04-04T22:36:06.243Z,7.50
2019-04-04T22:38:36.699Z,7.50
2019-04-04T22:41:07.184Z,7.40
2019-04-04T22:43:37.592Z,7.40
2019-04-04T22:46:08.050Z,7.40
2019-04-04T22:48:38.441Z,7.50
2019-04-04T22:51:08.923Z,7.40
2019-04-04T22:53:39.299Z,7.40
2019-04-04T22:56:09.697Z,7.40
2019-04-04T22:58:40.101Z,7.40
2019-04-04T23:01:10.553Z,7.40
2019-04-04T23:03:40.962Z,7.40
2019-04-04T23:06:11.375Z,7.40
2019-04-04T23:08:41.817Z,7.40
2019-04-04T23:11:12.216Z,7.40
2019-04-04T23:13:42.690Z,7.40
2019-04-04T23:16:13.151Z,7.40
2019-04-04T23:18:43.599Z,7.40
2019-04-04T23:21:14.007Z,7.40
2019-04-04T23:23:44.454Z,7.40
2019-04-04T23:26:14.910Z,7.40
2019-04-04T23:28:45.316Z,7.40
2019-04-04T23:31:15.758Z,7.40
2019-04-04T23:33:46.211Z,7.40
2019-04-04T23:36:16.626Z,7.40
2019-04-04T23:38:47.069Z,7.40
2019-04-04T23:41:17.520Z,7.40
2019-04-04T23:43:47.933Z,7.40
2019-04-04T23:46:18.341Z,7.30
2019-04-04T23:48:48.790Z,7.30
2019-04-04T23:51:19.214Z,7.30
2019-04-04T23:53:49.620Z,7.30
2019-04-04T23:56:20.077Z,7.30
2019-04-04T23:58:50.508Z,7.30
